Time;durP1;ratioP1;P1;durP2;ratioP2;P2;SDS_P1;SDS_P2;PMS_P1;PMS_P2;Temp;Humidity;BMP_temperature;BMP_pressure;BME280_temperature;BME280_humidity;BME280_pressure;Samples;Min_cycle;Max_cycle;Signal;HPM_P1;HPM_P2
2021/10/20 00:01:39;;;;;;;6.60;2.72;;;;;;;10.94;76.27;99022.03;5032368;28;20029;-65
2021/10/20 00:04:05;;;;;;;4.60;2.45;;;;;;;11.06;76.26;99038.56;5035173;28;20479;-65
2021/10/20 00:06:31;;;;;;;4.38;2.28;;;;;;;10.84;76.83;99023.44;5034644;28;20021;-65
2021/10/20 00:08:57;;;;;;;5.32;2.65;;;;;;;10.82;77.21;99012.81;5035230;28;20036;-65
2021/10/20 00:11:22;;;;;;;4.53;2.80;;;;;;;10.69;77.20;99007.34;5035487;28;20467;-65
2021/10/20 00:13:48;;;;;;;4.40;2.22;;;;;;;10.71;78.24;99040.41;5035385;28;20108;-65
2021/10/20 00:16:15;;;;;;;4.32;2.58;;;;;;;10.66;78.98;99045.59;5034573;28;20017;-65
2021/10/20 00:18:46;;;;;;;5.05;2.50;;;;;;;10.51;79.05;99014.06;5022779;28;20037;-65
2021/10/20 00:21:11;;;;;;;5.28;3.00;;;;;;;10.61;79.37;99034.50;5026542;28;20099;-65
2021/10/20 00:23:37;;;;;;;7.18;2.45;;;;;;;10.61;79.22;99034.50;5035027;28;20053;-65
2021/10/20 00:26:02;;;;;;;3.85;2.28;;;;;;;10.49;80.21;99023.41;5034172;28;20021;-66
2021/10/20 00:28:27;;;;;;;6.97;3.67;;;;;;;10.40;80.46;99014.63;5034884;28;20029;-65
2021/10/20 00:30:52;;;;;;;7.22;3.80;;;;;;;10.26;81.26;99021.75;5035175;28;20029;-66
2021/10/20 00:33:18;;;;;;;4.47;2.60;;;;;;;10.16;81.65;99021.25;5033910;28;20025;-65
2021/10/20 00:35:43;;;;;;;3.97;2.80;;;;;;;10.01;83.15;99010.53;5038225;28;20371;-65
2021/10/20 00:38:08;;;;;;;5.70;2.60;;;;;;;9.92;83.63;99010.88;5054689;28;20061;-65
2021/10/20 00:40:34;;;;;;;6.15;2.95;;;;;;;10.17;82.06;99006.72;5050580;28;20116;-65
2021/10/20 00:42:59;;;;;;;6.68;3.10;;;;;;;10.12;82.24;99009.16;5035021;28;20036;-65
2021/10/20 00:45:24;;;;;;;4.45;2.70;;;;;;;10.25;81.52;99008.44;5035055;28;20033;-65
2021/10/20 00:47:49;;;;;;;6.13;3.10;;;;;;;10.14;82.37;99001.72;5035121;28;20022;-65
2021/10/20 00:50:15;;;;;;;5.45;2.78;;;;;;;9.99;82.94;99001.78;5033872;28;20030;-65
2021/10/20 00:52:43;;;;;;;6.60;2.80;;;;;;;10.03;83.04;98999.50;5049903;28;20032;-65
2021/10/20 00:55:10;;;;;;;5.15;3.00;;;;;;;9.99;83.43;98993.69;5034501;28;20234;-66
2021/10/20 00:57:38;;;;;;;5.25;3.08;;;;;;;9.92;83.50;98987.38;5034650;28;20441;-66
2021/10/20 01:00:06;;;;;;;3.67;2.53;;;;;;;9.91;83.37;98976.78;5034314;28;20025;-66
2021/10/20 01:02:33;;;;;;;5.57;3.08;;;;;;;9.67;84.09;98957.22;5045522;28;20039;-66
2021/10/20 01:04:58;;;;;;;5.38;2.80;;;;;;;9.84;83.79;98974.81;5033394;28;20026;-66
2021/10/20 01:07:24;;;;;;;5.65;3.30;;;;;;;9.77;84.33;98965.84;5034299;28;20494;-66
2021/10/20 01:09:49;;;;;;;4.70;2.83;;;;;;;9.69;85.13;98970.53;5033300;28;20033;-65
2021/10/20 01:12:17;;;;;;;5.28;2.90;;;;;;;9.70;84.92;98972.22;5034545;28;20470;-65
2021/10/20 01:14:43;;;;;;;4.07;2.72;;;;;;;9.66;84.28;98925.81;5033505;28;20116;-65
2021/10/20 01:17:08;;;;;;;6.55;2.90;;;;;;;9.58;84.21;98925.97;5033754;28;20025;-65
2021/10/20 01:19:35;;;;;;;6.07;3.03;;;;;;;9.73;84.43;98951.03;5033663;28;20083;-65
2021/10/20 01:22:01;;;;;;;4.30;2.72;;;;;;;9.60;85.39;98943.66;5033760;28;20451;-65
2021/10/20 01:24:26;;;;;;;4.75;2.85;;;;;;;9.46;85.61;98933.75;5033190;28;20053;-65
2021/10/20 01:26:54;;;;;;;3.72;2.38;;;;;;;9.32;86.35;98935.47;5033883;28;20105;-65
2021/10/20 01:29:20;;;;;;;8.90;3.10;;;;;;;9.23;86.95;98928.53;5033352;28;20045;-65
2021/10/20 01:31:51;;;;;;;7.65;3.30;;;;;;;9.27;86.54;98924.41;5031972;28;20101;-65
2021/10/20 01:34:17;;;;;;;5.50;2.67;;;;;;;9.29;86.64;98921.53;5033945;28;20087;-65
2021/10/20 01:36:43;;;;;;;4.97;3.00;;;;;;;9.21;86.14;98917.09;5032807;28;20037;-64
2021/10/20 01:39:09;;;;;;;6.47;2.70;;;;;;;9.16;86.34;98916.81;5033724;28;20082;-64
2021/10/20 01:41:36;;;;;;;5.68;2.72;;;;;;;9.08;86.29;98908.84;5033022;28;20029;-64
2021/10/20 01:44:02;;;;;;;5.18;2.75;;;;;;;8.97;87.30;98902.94;5033416;28;20033;-65
2021/10/20 01:46:27;;;;;;;4.40;3.03;;;;;;;8.96;87.80;98905.81;5032547;28;20061;-65
2021/10/20 01:48:53;;;;;;;8.60;2.75;;;;;;;8.85;88.09;98901.75;5032713;28;20055;-65
2021/10/20 01:51:18;;;;;;;5.40;2.67;;;;;;;8.93;86.91;98885.47;5033628;28;20068;-65
2021/10/20 01:53:44;;;;;;;4.40;2.40;;;;;;;9.11;85.41;98884.19;5032594;28;20026;-65
2021/10/20 01:56:11;;;;;;;4.43;2.83;;;;;;;9.30;84.89;98870.06;5034140;28;20053;-65
2021/10/20 01:58:37;;;;;;;6.55;2.58;;;;;;;9.48;84.06;98866.03;5034440;28;20021;-65
2021/10/20 02:01:07;;;;;;;3.53;2.40;;;;;;;9.47;83.29;98859.81;5032528;28;20025;-65
2021/10/20 02:03:34;;;;;;;4.28;2.60;;;;;;;9.44;83.44;98868.31;5032405;28;20026;-65
2021/10/20 02:05:59;;;;;;;4.65;2.22;;;;;;;9.32;83.84;98859.03;5048184;28;20052;-65
2021/10/20 02:08:25;;;;;;;4.57;2.45;;;;;;;9.36;83.54;98863.88;5033022;28;20483;-65
2021/10/20 02:10:50;;;;;;;7.30;3.05;;;;;;;9.25;83.89;98861.69;5032766;28;20040;-64
2021/10/20 02:13:15;;;;;;;5.15;2.58;;;;;;;9.29;83.21;98856.75;5032334;28;20029;-64
2021/10/20 02:15:41;;;;;;;3.80;2.33;;;;;;;9.08;nan;98844.91;5032506;28;20072;-65
2021/10/20 02:18:06;;;;;;;4.13;2.60;;;;;;;9.16;83.84;98857.44;5032437;28;20059;-64
2021/10/20 02:20:31;;;;;;;3.50;2.47;;;;;;;9.13;83.24;98836.25;5032627;28;20107;-65
2021/10/20 02:22:57;;;;;;;3.97;2.20;;;;;;;9.38;81.88;98859.13;5032691;28;20468;-65
2021/10/20 02:25:22;;;;;;;3.95;2.20;;;;;;;9.49;82.15;98848.81;5030185;28;20036;-65
2021/10/20 02:27:48;;;;;;;4.78;2.10;;;;;;;9.34;82.64;98849.72;5032312;28;20021;-65
2021/10/20 02:30:14;;;;;;;4.68;2.40;;;;;;;9.43;82.35;98851.28;5032549;28;20029;-65
2021/10/20 02:32:39;;;;;;;3.42;2.22;;;;;;;9.30;82.89;98843.06;5032219;28;20037;-65
2021/10/20 02:35:06;;;;;;;3.47;2.13;;;;;;;9.16;82.92;98847.47;5032937;28;20022;-65
2021/10/20 02:37:31;;;;;;;4.25;2.20;;;;;;;9.22;82.76;98840.47;5032807;28;20021;-66
2021/10/20 02:39:56;;;;;;;4.70;2.20;;;;;;;9.32;83.14;98834.75;5032009;28;20032;-65
2021/10/20 02:42:21;;;;;;;4.85;2.55;;;;;;;9.05;84.09;98815.63;5029837;28;20047;-66
2021/10/20 02:44:47;;;;;;;4.00;2.30;;;;;;;9.30;83.16;98837.66;5031755;28;20075;-65
2021/10/20 02:47:12;;;;;;;6.57;2.65;;;;;;;9.43;81.77;98842.31;5031422;28;20051;-65
2021/10/20 02:49:38;;;;;;;5.60;2.60;;;;;;;9.32;82.51;98845.53;5032052;28;20029;-66
2021/10/20 02:52:03;;;;;;;4.97;2.58;;;;;;;9.23;82.95;98836.75;5031644;28;20033;-66
2021/10/20 02:54:28;;;;;;;3.78;2.35;;;;;;;9.27;82.71;98842.59;5030932;28;20021;-65
2021/10/20 02:56:55;;;;;;;3.88;2.50;;;;;;;9.27;81.87;98812.91;5031670;28;20053;-66
2021/10/20 03:01:48;;;;;;;6.20;2.33;;;;;;;9.42;81.61;98836.06;5011053;28;20053;-67
2021/10/20 03:04:13;;;;;;;5.82;2.22;;;;;;;9.24;81.88;98821.38;5013494;28;20022;-68
2021/10/20 03:06:38;;;;;;;8.65;2.42;;;;;;;9.06;83.38;98827.25;5012821;28;20025;-67
2021/10/20 03:09:04;;;;;;;5.05;2.40;;;;;;;8.91;84.52;98811.13;5012542;28;20037;-68
2021/10/20 03:11:29;;;;;;;5.13;2.22;;;;;;;8.78;85.26;98817.22;5012157;28;20030;-68
2021/10/20 03:13:56;;;;;;;4.72;2.30;;;;;;;8.74;85.46;98805.97;5012163;28;20130;-67
2021/10/20 03:16:22;;;;;;;7.85;2.42;;;;;;;8.93;84.48;98806.34;5013525;28;20049;-68
2021/10/20 03:18:47;;;;;;;5.40;2.58;;;;;;;8.81;84.86;98806.03;5014926;28;20129;-67
2021/10/20 03:21:12;;;;;;;5.30;2.75;;;;;;;8.77;84.84;98799.34;5014352;28;20503;-67
2021/10/20 03:23:37;;;;;;;6.20;2.33;;;;;;;8.65;86.09;98800.91;5013401;28;20153;-68
2021/10/20 03:26:03;;;;;;;3.78;2.10;;;;;;;8.56;86.55;98789.38;5025067;28;20025;-69
2021/10/20 03:28:28;;;;;;;5.35;2.83;;;;;;;8.45;86.82;98792.56;5032934;28;20030;-68
2021/10/20 03:30:53;;;;;;;4.68;2.60;;;;;;;8.27;87.28;98766.84;5029499;28;20026;-68
2021/10/20 03:33:19;;;;;;;4.57;2.58;;;;;;;8.52;86.44;98783.53;5013133;28;20105;-68
2021/10/20 03:35:44;;;;;;;6.45;3.03;;;;;;;8.59;86.20;98777.38;5012310;28;20032;-68
2021/10/20 03:38:11;;;;;;;4.22;2.42;;;;;;;8.47;86.99;98772.50;5012325;28;20377;-68
2021/10/20 03:40:36;;;;;;;3.83;2.60;;;;;;;8.30;86.50;98771.84;5014200;28;20365;-68
2021/10/20 03:43:03;;;;;;;4.57;2.58;;;;;;;8.27;87.11;98790.25;5014045;28;20037;-68
2021/10/20 03:45:28;;;;;;;4.80;2.92;;;;;;;8.36;86.15;98781.06;5030733;28;20029;-68
2021/10/20 03:47:53;;;;;;;4.40;2.40;;;;;;;8.45;86.12;98785.31;5026822;28;20026;-68
2021/10/20 03:50:18;;;;;;;4.85;2.33;;;;;;;8.52;85.13;98778.16;5015755;28;20472;-68
2021/10/20 03:52:44;;;;;;;4.50;2.30;;;;;;;8.84;83.77;98777.84;5029604;28;20041;-69
2021/10/20 03:55:10;;;;;;;4.63;2.40;;;;;;;8.86;83.16;98782.03;5023956;28;20094;-68
2021/10/20 03:57:37;;;;;;;5.95;2.45;;;;;;;9.09;81.93;98776.44;5025121;28;20025;-70
2021/10/20 04:00:22;;;;;;;2.92;1.90;;;;;;;9.08;81.91;98779.31;5030169;28;20026;-76
2021/10/20 04:02:47;;;;;;;3.60;2.10;;;;;;;8.96;81.80;98784.38;5017366;28;20037;-69
2021/10/20 04:05:15;;;;;;;4.05;2.03;;;;;;;8.99;82.14;98775.91;5022166;28;20030;-69
2021/10/20 04:07:41;;;;;;;3.92;2.38;;;;;;;9.14;80.98;98768.59;5028387;28;20029;-75
2021/10/20 04:10:11;;;;;;;3.97;2.10;;;;;;;9.24;80.41;98773.63;5028073;28;20022;-76
2021/10/20 04:12:36;;;;;;;4.85;2.17;;;;;;;9.31;80.25;98782.63;5027839;28;20022;-76
2021/10/20 04:15:02;;;;;;;5.20;2.50;;;;;;;9.30;79.69;98766.59;5028081;28;20021;-73
2021/10/20 04:17:29;;;;;;;6.80;2.20;;;;;;;9.53;78.65;98771.75;5014664;28;20471;-71
2021/10/20 04:19:55;;;;;;;5.55;2.40;;;;;;;9.44;78.52;98763.81;5013054;28;20164;-72
2021/10/20 04:22:20;;;;;;;5.45;2.33;;;;;;;9.50;78.57;98774.84;5013084;28;20499;-75
2021/10/20 04:24:46;;;;;;;5.20;2.22;;;;;;;9.34;79.12;98779.53;5013910;28;20045;-76
2021/10/20 04:27:11;;;;;;;4.15;2.22;;;;;;;9.09;79.35;98756.69;5014289;28;20070;-76
2021/10/20 04:29:36;;;;;;;4.65;2.38;;;;;;;9.07;80.50;98765.00;5013887;28;20494;-74
2021/10/20 04:32:02;;;;;;;6.88;2.22;;;;;;;9.07;79.80;98753.38;5013946;28;20030;-72
2021/10/20 04:34:27;;;;;;;3.53;1.95;;;;;;;9.03;79.76;98752.91;5011366;28;20548;-78
2021/10/20 04:36:52;;;;;;;5.07;2.38;;;;;;;9.24;78.74;98752.03;5014742;28;20109;-77
2021/10/20 04:39:18;;;;;;;4.85;2.38;;;;;;;8.90;79.16;98736.59;5010092;28;20033;-74
2021/10/20 04:41:43;;;;;;;5.63;2.50;;;;;;;8.91;80.63;98757.16;5013106;28;20109;-76
2021/10/20 04:44:09;;;;;;;3.80;1.90;;;;;;;8.65;82.04;98745.09;5013251;28;20022;-77
2021/10/20 04:46:34;;;;;;;5.18;1.98;;;;;;;8.51;82.56;98743.28;5015298;28;20101;-71
2021/10/20 04:48:59;;;;;;;5.13;2.47;;;;;;;8.53;82.90;98763.63;5015343;28;20030;-70
2021/10/20 04:51:25;;;;;;;4.75;2.28;;;;;;;8.46;83.20;98760.06;5000910;28;20022;-69
2021/10/20 04:53:50;;;;;;;3.20;1.95;;;;;;;8.41;83.73;98758.94;5012799;28;20037;-64
2021/10/20 04:56:15;;;;;;;4.80;2.38;;;;;;;8.37;83.62;98754.94;5015649;28;20021;-65
2021/10/20 04:58:41;;;;;;;3.53;2.03;;;;;;;8.36;83.44;98751.41;5015356;28;20033;-65
2021/10/20 05:01:06;;;;;;;3.90;2.30;;;;;;;8.33;84.95;98752.63;5029059;28;20030;-65
2021/10/20 05:03:31;;;;;;;4.03;2.25;;;;;;;8.22;85.84;98745.00;5032691;28;20029;-65
2021/10/20 05:05:56;;;;;;;6.43;2.97;;;;;;;8.08;86.57;98743.19;5034900;28;20022;-64
2021/10/20 05:08:22;;;;;;;6.00;2.75;;;;;;;8.09;87.09;98726.81;5025114;28;20141;-65
2021/10/20 05:10:47;;;;;;;6.35;2.33;;;;;;;7.84;87.49;98736.25;5032468;28;20044;-65
2021/10/20 05:13:13;;;;;;;5.53;2.58;;;;;;;7.64;88.87;98735.97;5034846;28;20018;-65
2021/10/20 05:15:38;;;;;;;8.00;2.70;;;;;;;7.55;90.14;98724.47;5026628;28;20017;-66
2021/10/20 05:18:04;;;;;;;4.25;2.55;;;;;;;7.47;90.82;98725.41;5037705;28;20017;-64
2021/10/20 05:20:29;;;;;;;7.95;2.75;;;;;;;7.33;91.21;98726.22;5029793;28;20073;-65
2021/10/20 05:22:54;;;;;;;4.53;2.83;;;;;;;7.17;91.07;98713.78;5024695;28;20021;-65
2021/10/20 05:25:20;;;;;;;5.75;2.70;;;;;;;7.23;92.01;98731.88;5026864;28;20050;-65
2021/10/20 05:27:45;;;;;;;6.00;2.95;;;;;;;7.20;93.09;98726.88;5028290;28;20097;-65
2021/10/20 05:30:12;;;;;;;7.10;2.97;;;;;;;7.29;93.77;98737.56;5020109;28;20049;-65
2021/10/20 05:32:38;;;;;;;5.85;3.13;;;;;;;7.25;94.00;98731.69;5027848;28;20026;-70
2021/10/20 05:35:04;;;;;;;6.38;3.03;;;;;;;7.23;93.81;98721.13;5017330;28;20088;-76
2021/10/20 05:37:29;;;;;;;8.48;4.60;;;;;;;7.28;92.92;98704.41;5014906;28;20416;-78
2021/10/20 05:39:54;;;;;;;10.27;5.22;;;;;;;7.42;93.38;98714.34;5006540;28;20026;-72
2021/10/20 05:42:20;;;;;;;12.43;5.82;;;;;;;7.43;94.36;98709.81;5013361;28;20022;-71
2021/10/20 05:44:46;;;;;;;9.98;4.50;;;;;;;7.25;95.09;98713.69;5005849;28;20037;-70
2021/10/20 05:47:11;;;;;;;9.48;4.85;;;;;;;7.11;96.43;98727.97;5013643;28;20037;-75
2021/10/20 05:49:37;;;;;;;9.48;5.18;;;;;;;7.09;97.04;98737.25;5012854;28;20029;-76
2021/10/20 05:52:03;;;;;;;10.73;4.30;;;;;;;7.21;97.49;98731.22;5009282;28;20097;-74
2021/10/20 05:54:29;;;;;;;11.07;4.57;;;;;;;7.02;97.48;98729.06;5014290;28;20021;-77
2021/10/20 05:56:54;;;;;;;12.57;4.97;;;;;;;6.95;98.38;98725.44;5010032;28;20073;-75
2021/10/20 05:59:22;;;;;;;11.55;4.85;;;;;;;6.99;98.63;98722.19;5015711;28;20026;-74
2021/10/20 06:01:49;;;;;;;10.10;4.85;;;;;;;7.35;98.23;98734.94;5011809;28;20545;-69
2021/10/20 06:04:15;;;;;;;12.00;4.40;;;;;;;7.41;97.85;98725.31;5013073;28;20041;-69
2021/10/20 06:06:41;;;;;;;11.52;7.32;;;;;;;7.38;96.98;98726.50;5013724;28;20372;-69
2021/10/20 06:09:06;;;;;;;9.00;5.65;;;;;;;7.35;97.13;98726.88;5013764;28;20029;-69
2021/10/20 06:11:32;;;;;;;15.45;4.40;;;;;;;7.23;97.54;98741.78;5017878;28;20038;-70
2021/10/20 06:13:58;;;;;;;8.95;4.13;;;;;;;7.15;98.26;98747.25;5012268;28;20087;-69
2021/10/20 06:16:23;;;;;;;7.00;4.07;;;;;;;7.18;98.33;98758.50;5008157;28;20022;-73
2021/10/20 06:18:48;;;;;;;9.70;3.42;;;;;;;7.31;99.16;98755.19;5009674;28;20033;-72
2021/10/20 06:21:13;;;;;;;5.18;3.40;;;;;;;8.73;94.33;98742.25;5001513;28;20045;-70
2021/10/20 06:23:39;;;;;;;6.25;3.60;;;;;;;10.71;79.51;98746.28;5010077;28;20041;-70
2021/10/20 06:26:04;;;;;;;5.47;3.25;;;;;;;12.63;70.22;98719.84;5006286;28;20163;-70
2021/10/20 06:28:30;;;;;;;9.30;3.20;;;;;;;13.27;66.07;98714.34;4993772;28;20395;-70
2021/10/20 06:30:55;;;;;;;6.15;2.80;;;;;;;13.63;64.59;98724.47;4994020;28;20041;-70
2021/10/20 06:33:20;;;;;;;5.68;2.53;;;;;;;13.32;65.21;98722.66;5003434;28;20025;-70
2021/10/20 06:35:46;;;;;;;17.25;3.60;;;;;;;13.59;63.70;98706.94;5009654;28;20542;-70
2021/10/20 06:38:11;;;;;;;6.55;3.00;;;;;;;14.79;60.15;98700.81;4999218;28;20026;-70
2021/10/20 06:40:36;;;;;;;6.85;2.97;;;;;;;15.84;56.77;98704.66;5001992;28;20022;-70
2021/10/20 06:43:03;;;;;;;5.72;2.42;;;;;;;16.79;53.42;98705.19;4998280;28;20068;-70
2021/10/20 06:45:28;;;;;;;6.78;2.50;;;;;;;17.07;53.95;98705.13;5002685;28;20025;-70
2021/10/20 06:47:54;;;;;;;4.38;2.60;;;;;;;17.55;52.77;98705.59;5000444;28;20049;-70
2021/10/20 06:50:19;;;;;;;4.57;2.58;;;;;;;18.28;50.18;98695.34;5007513;28;20029;-70
2021/10/20 06:52:44;;;;;;;5.45;2.53;;;;;;;19.11;48.44;98695.13;5003923;28;20026;-70
2021/10/20 06:55:10;;;;;;;5.30;2.60;;;;;;;19.68;45.99;98688.16;5003178;28;20050;-71
2021/10/20 06:57:36;;;;;;;4.53;2.85;;;;;;;20.19;45.10;98676.56;5006287;28;20101;-71
2021/10/20 07:00:04;;;;;;;8.73;3.65;;;;;;;19.99;44.93;98691.03;4999243;28;20109;-70
2021/10/20 07:02:29;;;;;;;4.28;3.03;;;;;;;20.98;42.05;98667.13;5001842;28;20030;-70
2021/10/20 07:04:54;;;;;;;6.50;2.90;;;;;;;21.87;40.41;98673.06;5003917;28;20541;-70
2021/10/20 07:07:20;;;;;;;5.10;3.47;;;;;;;21.19;41.20;98679.75;5002857;28;20034;-69
2021/10/20 07:09:45;;;;;;;7.47;3.58;;;;;;;22.23;40.96;98673.78;5012373;28;20766;-70
2021/10/20 07:12:10;;;;;;;3.78;2.42;;;;;;;22.67;39.55;98673.00;5003061;28;20029;-70
2021/10/20 07:14:36;;;;;;;4.72;3.15;;;;;;;23.25;37.43;98669.53;5006958;28;20040;-70
2021/10/20 07:17:04;;;;;;;6.57;3.35;;;;;;;22.86;37.40;98683.34;5007764;28;20767;-70
2021/10/20 07:19:30;;;;;;;6.43;2.80;;;;;;;22.65;37.43;98683.47;5004500;28;20068;-70
2021/10/20 07:21:55;;;;;;;5.35;3.20;;;;;;;22.06;38.39;98687.91;5006702;28;20431;-70
2021/10/20 07:24:20;;;;;;;5.22;2.85;;;;;;;22.00;39.05;98694.50;5003754;28;20428;-70
2021/10/20 07:26:46;;;;;;;11.27;3.25;;;;;;;22.18;39.35;98686.75;5005351;28;20025;-75
2021/10/20 07:29:11;;;;;;;5.32;3.33;;;;;;;21.40;41.13;98686.09;5005837;28;20061;-69
2021/10/20 07:31:36;;;;;;;5.65;3.75;;;;;;;20.76;42.63;98679.22;4995940;28;20499;-69
2021/10/20 07:34:02;;;;;;;6.47;3.47;;;;;;;20.46;42.88;98657.97;5003649;28;20072;-71
2021/10/20 07:36:28;;;;;;;6.68;2.90;;;;;;;20.73;42.92;98668.75;5011303;28;20049;-69
2021/10/20 07:38:54;;;;;;;6.68;3.90;;;;;;;21.60;41.29;98657.72;5007919;28;20111;-69
2021/10/20 07:41:20;;;;;;;7.65;3.83;;;;;;;22.14;41.07;98652.56;4994073;28;20472;-69
2021/10/20 07:43:45;;;;;;;7.00;4.47;;;;;;;22.23;39.68;98645.41;5000231;28;20042;-69
2021/10/20 07:46:11;;;;;;;9.00;4.45;;;;;;;21.54;42.13;98645.09;5011453;28;20392;-69
2021/10/20 07:48:36;;;;;;;10.40;4.18;;;;;;;21.15;43.00;98631.91;5011261;28;20515;-69
2021/10/20 07:51:01;;;;;;;7.00;4.13;;;;;;;21.74;42.02;98622.16;5010073;28;20145;-69
2021/10/20 07:53:27;;;;;;;6.72;4.03;;;;;;;22.41;41.61;98610.84;5008640;28;20041;-69
2021/10/20 07:55:52;;;;;;;6.72;3.60;;;;;;;22.98;41.20;98623.16;5012563;28;20029;-69
2021/10/20 07:58:17;;;;;;;6.45;3.88;;;;;;;23.21;40.69;98610.50;5020006;28;20026;-69
2021/10/20 08:00:43;;;;;;;8.02;4.00;;;;;;;23.77;40.19;98615.47;5014370;28;20120;-69
2021/10/20 08:03:08;;;;;;;6.10;3.45;;;;;;;24.28;38.33;98605.66;5011989;28;20030;-70
2021/10/20 08:05:33;;;;;;;6.38;3.58;;;;;;;25.16;34.85;98594.09;5009666;28;20450;-69
2021/10/20 08:07:59;;;;;;;4.60;2.90;;;;;;;26.13;32.95;98604.09;5011689;28;20030;-68
2021/10/20 08:10:27;;;;;;;4.68;2.70;;;;;;;26.60;31.16;98590.03;5011878;28;20036;-69
2021/10/20 08:12:58;;;;;;;5.38;2.90;;;;;;;26.16;31.90;98586.84;5012817;28;20025;-70
2021/10/20 08:15:25;;;;;;;3.75;2.50;;;;;;;25.16;34.10;98583.03;5012574;28;20460;-69
2021/10/20 08:17:50;;;;;;;5.15;2.75;;;;;;;25.00;34.16;98597.09;5010162;28;20076;-69
2021/10/20 08:20:22;;;;;;;4.40;2.53;;;;;;;25.08;33.98;98596.41;5032495;28;20120;-70
2021/10/20 08:22:48;;;;;;;3.47;2.30;;;;;;;25.17;33.28;98601.28;5011939;28;20033;-71
2021/10/20 08:25:15;;;;;;;4.07;2.45;;;;;;;27.14;32.44;98599.22;5015147;28;20518;-70
2021/10/20 08:27:41;;;;;;;3.83;2.50;;;;;;;27.63;32.02;98596.56;5014259;28;20040;-70
2021/10/20 08:30:16;;;;;;;3.95;2.42;;;;;;;26.33;31.95;98591.75;5014697;28;20030;-70
2021/10/20 08:32:42;;;;;;;5.25;2.28;;;;;;;25.65;33.15;98595.38;5012937;28;20061;-70
2021/10/20 08:35:07;;;;;;;5.22;2.45;;;;;;;24.17;35.05;98598.66;5016303;28;20194;-70
2021/10/20 08:37:33;;;;;;;5.05;2.20;;;;;;;22.99;37.61;98602.72;5004413;28;20124;-67
2021/10/20 08:39:58;;;;;;;3.50;2.05;;;;;;;21.38;40.23;98611.28;5015597;28;20029;-68
2021/10/20 08:42:24;;;;;;;4.30;2.25;;;;;;;21.97;40.29;98584.06;5015345;28;20077;-68
2021/10/20 08:44:49;;;;;;;3.40;2.30;;;;;;;21.95;40.97;98603.63;5015652;28;20095;-67
2021/10/20 08:47:15;;;;;;;3.97;2.60;;;;;;;23.03;38.98;98578.97;5003860;28;20401;-69
2021/10/20 08:49:42;;;;;;;8.10;2.65;;;;;;;23.53;38.63;98581.47;5012905;28;20030;-69
2021/10/20 08:52:10;;;;;;;6.75;2.70;;;;;;;22.99;39.41;98574.31;5016023;28;20080;-69
2021/10/20 08:54:36;;;;;;;3.88;2.25;;;;;;;24.32;37.81;98569.97;5015963;28;20056;-68
2021/10/20 08:57:02;;;;;;;4.70;2.53;;;;;;;23.83;38.29;98559.00;5014826;28;20026;-68
2021/10/20 08:59:28;;;;;;;6.93;3.47;;;;;;;23.20;38.66;98526.06;5014866;28;20025;-68
2021/10/20 09:01:53;;;;;;;4.32;2.28;;;;;;;23.01;40.07;98541.72;5065241;22;20049;-69
2021/10/20 09:04:20;;;;;;;3.75;2.03;;;;;;;23.03;39.86;98575.34;5054154;28;20033;-71
2021/10/20 09:06:45;;;;;;;3.70;2.10;;;;;;;22.85;40.30;98576.88;5054330;28;20025;-69
2021/10/20 09:09:13;;;;;;;3.95;2.15;;;;;;;21.78;42.03;98570.94;5052341;28;20027;-70
2021/10/20 09:11:39;;;;;;;5.35;2.28;;;;;;;20.78;44.72;98553.28;5038612;28;20036;-72
2021/10/20 09:14:11;;;;;;;3.92;2.20;;;;;;;22.21;41.77;98553.94;5034076;28;20017;-71
2021/10/20 09:16:39;;;;;;;4.78;2.35;;;;;;;22.88;40.59;98544.00;5032357;28;20029;-71
2021/10/20 09:19:16;;;;;;;6.78;2.65;;;;;;;24.04;37.86;98534.69;5032641;28;20029;-71
2021/10/20 09:21:47;;;;;;;3.90;2.13;;;;;;;22.86;39.90;98539.91;5033710;28;20029;-70
2021/10/20 09:24:12;;;;;;;5.50;2.00;;;;;;;22.22;41.70;98530.78;5033448;28;20033;-70
2021/10/20 09:26:38;;;;;;;4.40;2.30;;;;;;;22.61;41.80;98510.59;5036523;28;20021;-70
2021/10/20 09:29:18;;;;;;;6.13;2.13;;;;;;;22.47;40.79;98507.69;5041593;28;20488;-71
2021/10/20 09:31:43;;;;;;;3.22;1.92;;;;;;;21.76;42.64;98509.00;5024194;28;20030;-70
2021/10/20 09:34:09;;;;;;;4.35;2.22;;;;;;;21.63;42.57;98513.19;5026871;28;20090;-69
2021/10/20 09:36:35;;;;;;;6.40;2.67;;;;;;;21.37;43.79;98499.50;5033696;28;20167;-69
2021/10/20 09:39:00;;;;;;;4.70;1.85;;;;;;;22.39;41.66;98508.31;5032073;28;20025;-70
2021/10/20 09:41:26;;;;;;;3.70;2.13;;;;;;;22.94;40.96;98479.38;5034097;28;20052;-71
2021/10/20 09:43:56;;;;;;;5.63;2.03;;;;;;;23.30;40.06;98498.34;5032012;28;20043;-69
2021/10/20 09:46:47;;;;;;;8.10;2.30;;;;;;;22.58;41.25;98500.16;5025961;28;20395;-72
2021/10/20 09:49:23;;;;;;;3.28;2.25;;;;;;;22.79;41.19;98496.09;5031795;28;20104;-70
2021/10/20 09:51:49;;;;;;;3.33;1.90;;;;;;;22.28;41.92;98496.56;5033325;28;22186;-70
2021/10/20 09:54:21;;;;;;;4.53;2.00;;;;;;;23.69;39.52;98480.72;5022001;28;20064;-70
2021/10/20 09:56:52;;;;;;;3.65;2.00;;;;;;;23.00;40.11;98477.44;5032734;28;20029;-70
2021/10/20 09:59:18;;;;;;;4.00;2.22;;;;;;;23.70;39.56;98460.25;5032801;28;20037;-70
2021/10/20 10:01:45;;;;;;;2.88;1.77;;;;;;;24.09;38.13;98467.47;5031170;28;20033;-70
2021/10/20 10:04:10;;;;;;;3.33;1.77;;;;;;;24.11;37.83;98440.34;5032687;28;20029;-70
2021/10/20 10:06:38;;;;;;;6.97;1.77;;;;;;;24.42;37.80;98470.25;5033361;28;20032;-70
2021/10/20 10:09:03;;;;;;;3.60;1.73;;;;;;;25.04;36.72;98453.38;5013573;28;20513;-71
2021/10/20 10:11:29;;;;;;;9.23;2.15;;;;;;;24.56;37.09;98468.38;5021296;28;20116;-70
2021/10/20 10:14:01;;;;;;;3.13;1.70;;;;;;;24.23;37.89;98464.75;5013662;28;20029;-70
2021/10/20 10:16:28;;;;;;;3.42;1.73;;;;;;;22.85;40.18;98467.38;5017547;28;20168;-70
2021/10/20 10:18:56;;;;;;;4.80;2.00;;;;;;;22.09;42.35;98461.41;5042656;28;20037;-71
2021/10/20 10:21:30;;;;;;;3.25;1.67;;;;;;;22.19;42.80;98460.53;5034689;28;20025;-71
2021/10/20 10:23:58;;;;;;;3.00;1.67;;;;;;;23.96;39.69;98459.94;5033301;28;20032;-71
2021/10/20 10:26:24;;;;;;;2.55;1.77;;;;;;;24.66;38.07;98461.84;5032651;28;20026;-71
2021/10/20 10:29:07;;;;;;;5.82;1.88;;;;;;;25.07;37.50;98461.06;5031887;28;20030;-71
2021/10/20 10:31:35;;;;;;;4.95;1.98;;;;;;;24.38;38.87;98456.19;5030202;28;20438;-71
2021/10/20 10:34:00;;;;;;;3.50;1.92;;;;;;;23.58;40.24;98451.63;5032589;28;20030;-71
2021/10/20 10:36:26;;;;;;;4.70;1.83;;;;;;;22.47;42.20;98461.66;5034051;28;20490;-71
2021/10/20 10:39:04;;;;;;;4.57;1.88;;;;;;;22.82;41.78;98431.25;5032048;28;20029;-71
2021/10/20 10:41:41;;;;;;;3.08;1.73;;;;;;;23.24;41.25;98440.72;5032608;28;20029;-70
2021/10/20 10:44:07;;;;;;;5.65;2.15;;;;;;;23.14;41.28;98445.25;5025660;28;20289;-70
2021/10/20 10:46:54;;;;;;;3.80;1.67;;;;;;;22.78;42.43;98432.97;5035075;28;20029;-71
2021/10/20 10:49:37;;;;;;;5.40;2.15;;;;;;;22.84;42.40;98427.09;5032439;28;20111;-71
2021/10/20 10:52:17;;;;;;;4.93;2.10;;;;;;;23.41;41.58;98432.78;5032735;28;20032;-71
2021/10/20 10:54:56;;;;;;;5.38;1.73;;;;;;;25.21;38.04;98436.19;5032351;28;20364;-71
2021/10/20 10:57:22;;;;;;;4.53;2.03;;;;;;;27.10;34.54;98403.84;5027967;28;20124;-70
2021/10/20 11:00:03;;;;;;;2.28;1.50;;;;;;;27.36;33.85;98437.25;5028162;28;20068;-70
2021/10/20 11:02:55;;;;;;;3.40;1.90;;;;;;;27.24;34.80;98420.41;5030222;28;20116;-70
2021/10/20 11:05:25;;;;;;;3.42;2.03;;;;;;;26.50;36.22;98413.50;5032534;28;20441;-70
2021/10/20 11:07:53;;;;;;;3.47;1.98;;;;;;;25.76;37.22;98420.28;5031371;28;20124;-70
2021/10/20 11:10:19;;;;;;;4.13;1.80;;;;;;;25.43;37.57;98411.31;5048583;28;20104;-70
2021/10/20 11:12:49;;;;;;;2.78;1.58;;;;;;;25.43;37.58;98411.31;5017386;28;20034;-70
2021/10/20 11:15:16;;;;;;;3.05;1.50;;;;;;;26.89;35.66;98398.84;5026276;28;20497;-69
2021/10/20 11:17:41;;;;;;;3.67;1.52;;;;;;;28.67;32.64;98390.00;5031591;28;20037;-69
2021/10/20 11:20:16;;;;;;;2.92;1.70;;;;;;;30.19;30.51;98379.66;5030548;28;20035;-70
2021/10/20 11:22:53;;;;;;;3.55;1.50;;;;;;;30.20;30.32;98372.91;5031594;28;20021;-70
2021/10/20 11:25:20;;;;;;;4.30;1.50;;;;;;;31.12;28.66;98373.69;5019648;28;20068;-69
2021/10/20 11:27:56;;;;;;;2.93;1.50;;;;;;;31.09;29.11;98358.44;5031286;28;20075;-69
2021/10/20 11:30:28;;;;;;;2.78;1.40;;;;;;;30.24;30.34;98362.72;5031279;28;20048;-69
2021/10/20 11:32:55;;;;;;;2.35;1.55;;;;;;;30.99;30.05;98372.88;5031561;28;20037;-70
2021/10/20 11:35:25;;;;;;;4.07;1.20;;;;;;;29.63;30.62;98354.03;5029530;28;20022;-69
2021/10/20 11:37:59;;;;;;;2.85;1.70;;;;;;;27.54;33.86;98372.25;5030914;28;20036;-70